Time;durP1;ratioP1;P1;durP2;ratioP2;P2;SDS_P1;SDS_P2;PMS_P1;PMS_P2;Temp;Humidity;BMP_temperature;BMP_pressure;BME280_temperature;BME280_humidity;BME280_pressure;Samples;Min_cycle;Max_cycle;Signal;HPM_P1;HPM_P2
2022/10/23 00:00:42;;;;;;;31.55;10.70;;;;;;;;;;5031455;28;20025;-66
2022/10/23 00:03:07;;;;;;;22.10;10.13;;;;;;;;;;5046614;28;20020;-67
2022/10/23 00:05:33;;;;;;;25.55;11.10;;;;;;;;;;5045489;28;20114;-67
2022/10/23 00:07:59;;;;;;;46.50;12.07;;;;;;;;;;5040994;28;20025;-66
2022/10/23 00:10:25;;;;;;;24.10;12.18;;;;;;;;;;5033313;28;20029;-67
2022/10/23 00:12:50;;;;;;;32.75;11.77;;;;;;;;;;5033739;28;20017;-68
2022/10/23 00:15:17;;;;;;;28.10;11.82;;;;;;;;;;5032979;28;20028;-66
2022/10/23 00:17:42;;;;;;;32.63;11.45;;;;;;;;;;5033453;28;20025;-68
2022/10/23 00:20:07;;;;;;;23.23;10.35;;;;;;;;;;5033580;28;20052;-67
2022/10/23 00:22:33;;;;;;;26.15;10.70;;;;;;;;;;5033264;28;20066;-67
2022/10/23 00:24:58;;;;;;;24.20;9.77;;;;;;;;;;5033124;28;20025;-69
2022/10/23 00:27:24;;;;;;;28.38;9.75;;;;;;;;;;5032808;28;20033;-66
2022/10/23 00:29:49;;;;;;;20.63;9.73;;;;;;;;;;5014916;28;20033;-67
2022/10/23 00:32:14;;;;;;;20.95;9.82;;;;;;;;;;5032711;28;20116;-66
2022/10/23 00:34:39;;;;;;;23.77;11.10;;;;;;;;;;5019501;28;20033;-67
2022/10/23 00:37:04;;;;;;;20.85;10.73;;;;;;;;;;5021891;28;20369;-67
2022/10/23 00:39:30;;;;;;;20.33;10.45;;;;;;;;;;5033183;28;20101;-66
2022/10/23 00:41:55;;;;;;;24.88;10.60;;;;;;;;;;5046341;28;20018;-64
2022/10/23 00:44:20;;;;;;;37.05;12.13;;;;;;;;;;5033301;28;20022;-67
2022/10/23 00:46:45;;;;;;;27.95;10.95;;;;;;;;;;5032771;28;20022;-67
2022/10/23 00:49:11;;;;;;;26.55;11.27;;;;;;;;;;5032752;28;20259;-67
2022/10/23 00:51:45;;;;;;;28.55;10.30;;;;;;;;;;5029324;28;20075;-66
2022/10/23 00:54:11;;;;;;;27.25;10.10;;;;;;;;;;5032832;28;20507;-66
2022/10/23 00:56:38;;;;;;;27.75;9.60;;;;;;;;;;5032366;28;20029;-66
2022/10/23 00:59:03;;;;;;;19.40;8.52;;;;;;;;;;5033029;28;20017;-65
2022/10/23 01:01:28;;;;;;;20.05;9.27;;;;;;;;;;5032686;28;20660;-68
2022/10/23 01:03:53;;;;;;;18.58;9.80;;;;;;;;;;5038167;28;20021;-66
2022/10/23 01:06:36;;;;;;;19.73;9.68;;;;;;;;;;5039391;28;20030;-68
2022/10/23 01:09:12;;;;;;;21.75;9.32;;;;;;;;;;5032762;28;20017;-66
2022/10/23 01:11:54;;;;;;;23.90;9.00;;;;;;;;;;5032911;28;20505;-66
2022/10/23 01:14:28;;;;;;;25.35;8.65;;;;;;;;;;5021479;28;20435;-67
2022/10/23 01:17:04;;;;;;;21.33;9.48;;;;;;;;;;5017209;28;20507;-68
2022/10/23 01:19:42;;;;;;;30.88;9.23;;;;;;;;;;5032628;28;20087;-66
2022/10/23 01:22:26;;;;;;;21.20;8.18;;;;;;;;;;5036864;28;20017;-67
2022/10/23 01:25:06;;;;;;;19.08;9.48;;;;;;;;;;5032065;28;20075;-68
2022/10/23 01:27:31;;;;;;;22.88;9.00;;;;;;;;;;5051124;28;20032;-66
2022/10/23 01:29:58;;;;;;;34.97;9.75;;;;;;;;;;5033300;28;20021;-65
2022/10/23 01:32:23;;;;;;;27.92;11.32;;;;;;;;;;5032606;28;20944;-68
2022/10/23 01:34:56;;;;;;;22.30;10.33;;;;;;;;;;5032316;28;20082;-66
2022/10/23 01:37:23;;;;;;;22.15;9.82;;;;;;;;;;5031952;28;20329;-68
2022/10/23 01:39:51;;;;;;;21.30;9.75;;;;;;;;;;5024612;28;20013;-67
2022/10/23 01:42:20;;;;;;;24.08;9.10;;;;;;;;;;5032757;28;20378;-67
2022/10/23 01:44:45;;;;;;;27.08;9.77;;;;;;;;;;5046543;28;20044;-67
2022/10/23 01:47:12;;;;;;;33.87;9.10;;;;;;;;;;5043692;28;20060;-66
2022/10/23 01:49:39;;;;;;;22.33;9.40;;;;;;;;;;5031571;28;20257;-68
2022/10/23 01:52:05;;;;;;;28.48;9.25;;;;;;;;;;5027855;28;20060;-67
2022/10/23 01:54:32;;;;;;;38.65;11.98;;;;;;;;;;5036809;28;20028;-65
2022/10/23 01:56:58;;;;;;;15.98;7.43;;;;;;;;;;5031653;28;20028;-67
2022/10/23 01:59:25;;;;;;;20.10;8.60;;;;;;;;;;5031288;28;20096;-67
2022/10/23 02:01:52;;;;;;;16.30;7.85;;;;;;;;;;5031314;28;20014;-67
2022/10/23 02:04:22;;;;;;;26.92;8.23;;;;;;;;;;5037126;28;20082;-67
2022/10/23 02:06:47;;;;;;;17.15;7.35;;;;;;;;;;5022005;28;20021;-67
2022/10/23 02:09:13;;;;;;;17.40;7.45;;;;;;;;;;5031251;28;20498;-67
2022/10/23 02:11:58;;;;;;;18.17;7.97;;;;;;;;;;5031324;28;20033;-68
2022/10/23 02:14:42;;;;;;;15.52;6.90;;;;;;;;;;5031115;28;20167;-67
2022/10/23 02:17:17;;;;;;;23.67;8.30;;;;;;;;;;5031030;28;20368;-67
2022/10/23 02:19:47;;;;;;;20.42;7.97;;;;;;;;;;5031639;28;20060;-67
2022/10/23 02:22:19;;;;;;;19.08;7.60;;;;;;;;;;5031229;28;20068;-68
2022/10/23 02:24:50;;;;;;;24.33;7.97;;;;;;;;;;5030483;28;20022;-68
2022/10/23 02:27:18;;;;;;;13.60;7.00;;;;;;;;;;5030620;28;20017;-67
2022/10/23 02:29:55;;;;;;;20.58;7.88;;;;;;;;;;5030662;28;20391;-67
2022/10/23 02:32:22;;;;;;;18.55;7.68;;;;;;;;;;5031148;28;20021;-66
2022/10/23 02:34:47;;;;;;;18.55;7.53;;;;;;;;;;5030989;28;20029;-68
2022/10/23 02:37:13;;;;;;;19.58;7.15;;;;;;;;;;5030785;28;20025;-66
2022/10/23 02:39:38;;;;;;;17.88;6.93;;;;;;;;;;5013625;28;20101;-66
2022/10/23 02:42:16;;;;;;;21.08;7.10;;;;;;;;;;5031433;28;20511;-68
2022/10/23 02:44:59;;;;;;;19.83;7.18;;;;;;;;;;5031199;28;20430;-66
2022/10/23 02:47:25;;;;;;;16.58;7.28;;;;;;;;;;5020147;28;20036;-66
2022/10/23 02:49:59;;;;;;;16.77;7.20;;;;;;;;;;5044951;28;20394;-67
2022/10/23 02:52:40;;;;;;;25.35;7.13;;;;;;;;;;5039829;28;20025;-67
2022/10/23 02:55:29;;;;;;;15.30;6.97;;;;;;;;;;5037086;28;20025;-66
2022/10/23 02:58:13;;;;;;;22.02;7.40;;;;;;;;;;5034600;28;20025;-66
2022/10/23 03:00:41;;;;;;;15.52;6.25;;;;;;;;;;5030865;28;20013;-68
2022/10/23 03:03:15;;;;;;;16.23;7.28;;;;;;;;;;5031365;28;20103;-66
2022/10/23 03:05:43;;;;;;;14.95;6.80;;;;;;;;;;5030038;28;20020;-68
2022/10/23 03:08:09;;;;;;;16.25;7.32;;;;;;;;;;5034284;28;20036;-67
2022/10/23 03:10:34;;;;;;;10.10;5.53;;;;;;;;;;5042309;28;20402;-65
2022/10/23 03:12:59;;;;;;;11.50;5.18;;;;;;;;;;5027787;28;20167;-67
2022/10/23 03:15:25;;;;;;;17.80;6.18;;;;;;;;;;5012143;28;20029;-66
2022/10/23 03:17:50;;;;;;;14.82;5.95;;;;;;;;;;5029854;28;20009;-68
2022/10/23 03:20:15;;;;;;;12.43;5.97;;;;;;;;;;5029535;28;20412;-67
2022/10/23 03:22:40;;;;;;;9.73;5.05;;;;;;;;;;5033160;28;20075;-67
2022/10/23 03:25:06;;;;;;;11.52;5.82;;;;;;;;;;5037070;28;20013;-68
2022/10/23 03:27:31;;;;;;;13.90;5.85;;;;;;;;;;5029583;28;20033;-66
2022/10/23 03:29:57;;;;;;;16.17;5.80;;;;;;;;;;5024011;28;20041;-68
2022/10/23 03:32:22;;;;;;;13.68;6.18;;;;;;;;;;5013588;28;20021;-67
2022/10/23 03:34:47;;;;;;;12.35;5.65;;;;;;;;;;5030130;28;20040;-68
2022/10/23 03:37:12;;;;;;;12.15;5.05;;;;;;;;;;5029646;28;20022;-66
2022/10/23 03:39:38;;;;;;;11.95;5.50;;;;;;;;;;5029656;28;20022;-68
2022/10/23 03:42:03;;;;;;;19.88;5.40;;;;;;;;;;5030561;28;20064;-67
2022/10/23 03:44:30;;;;;;;18.33;6.32;;;;;;;;;;5029742;28;20017;-65
2022/10/23 03:46:55;;;;;;;12.45;6.00;;;;;;;;;;5025151;28;20018;-66
2022/10/23 03:49:20;;;;;;;13.68;5.72;;;;;;;;;;5033016;28;20143;-65
2022/10/23 03:51:50;;;;;;;12.25;5.50;;;;;;;;;;5028685;28;20392;-66
2022/10/23 03:54:16;;;;;;;17.13;5.50;;;;;;;;;;5018861;28;20032;-67
2022/10/23 03:56:41;;;;;;;11.48;5.30;;;;;;;;;;5030623;28;20033;-66
2022/10/23 03:59:06;;;;;;;20.13;5.67;;;;;;;;;;5029597;28;20010;-68
2022/10/23 04:01:31;;;;;;;19.10;5.93;;;;;;;;;;5034417;28;20274;-66
2022/10/23 04:03:56;;;;;;;19.40;5.43;;;;;;;;;;5022493;28;20258;-67
2022/10/23 04:06:22;;;;;;;10.30;5.60;;;;;;;;;;5037220;28;20246;-67
2022/10/23 04:08:47;;;;;;;12.50;5.50;;;;;;;;;;5035982;28;20462;-67
2022/10/23 04:11:12;;;;;;;13.47;5.40;;;;;;;;;;5029466;28;20123;-65
2022/10/23 04:13:37;;;;;;;15.50;5.32;;;;;;;;;;5041252;28;20337;-68
2022/10/23 04:16:03;;;;;;;29.73;6.13;;;;;;;;;;5026227;28;20025;-67
2022/10/23 04:18:28;;;;;;;11.43;5.35;;;;;;;;;;5040856;28;20078;-67
2022/10/23 04:20:53;;;;;;;14.38;6.20;;;;;;;;;;5031190;28;20387;-66
2022/10/23 04:23:18;;;;;;;16.83;5.03;;;;;;;;;;5029429;28;20518;-67
2022/10/23 04:25:44;;;;;;;12.48;5.43;;;;;;;;;;5028772;28;20021;-67
2022/10/23 04:28:09;;;;;;;11.95;5.65;;;;;;;;;;5028517;28;20037;-65
2022/10/23 04:30:34;;;;;;;13.05;5.85;;;;;;;;;;5029944;28;20061;-66
2022/10/23 04:33:00;;;;;;;11.13;6.38;;;;;;;;;;5029307;28;20391;-67
2022/10/23 04:35:25;;;;;;;18.97;6.30;;;;;;;;;;5029471;28;20098;-66
2022/10/23 04:37:50;;;;;;;14.88;5.72;;;;;;;;;;5029033;28;20267;-66
2022/10/23 04:40:15;;;;;;;12.05;6.25;;;;;;;;;;5012914;28;20635;-65
2022/10/23 04:42:40;;;;;;;19.63;6.03;;;;;;;;;;5031619;28;20587;-65
2022/10/23 04:45:06;;;;;;;15.93;6.70;;;;;;;;;;5030771;28;20494;-66
2022/10/23 04:47:31;;;;;;;13.05;5.80;;;;;;;;;;5033290;28;20017;-66
2022/10/23 04:49:56;;;;;;;13.25;5.90;;;;;;;;;;5045699;28;20029;-66
2022/10/23 04:52:22;;;;;;;12.40;5.80;;;;;;;;;;5043293;28;20451;-67
2022/10/23 04:54:47;;;;;;;15.48;5.97;;;;;;;;;;5047979;28;20034;-66
2022/10/23 04:57:12;;;;;;;23.67;7.15;;;;;;;;;;5032364;28;20021;-67
2022/10/23 04:59:38;;;;;;;14.15;6.25;;;;;;;;;;5049054;28;20055;-65
2022/10/23 05:02:03;;;;;;;13.85;7.20;;;;;;;;;;5042861;28;20022;-68
2022/10/23 05:04:28;;;;;;;18.55;6.40;;;;;;;;;;5043245;28;20050;-67
2022/10/23 05:06:53;;;;;;;22.42;9.02;;;;;;;;;;5046047;28;20016;-68
2022/10/23 05:09:18;;;;;;;21.80;7.75;;;;;;;;;;5045844;28;20486;-67
2022/10/23 05:11:44;;;;;;;19.63;7.38;;;;;;;;;;5029569;28;20025;-68
2022/10/23 05:14:09;;;;;;;18.33;6.97;;;;;;;;;;5029234;28;20089;-68
2022/10/23 05:16:45;;;;;;;18.45;6.57;;;;;;;;;;5041600;28;20706;-67
2022/10/23 05:19:13;;;;;;;15.60;6.93;;;;;;;;;;5035341;28;20021;-65
2022/10/23 05:21:39;;;;;;;20.17;7.63;;;;;;;;;;5032792;28;20021;-65
2022/10/23 05:24:04;;;;;;;25.65;7.63;;;;;;;;;;5037307;28;20216;-68
2022/10/23 05:26:30;;;;;;;15.00;6.72;;;;;;;;;;5032121;28;20583;-67
2022/10/23 05:28:55;;;;;;;21.20;8.95;;;;;;;;;;5042167;28;20621;-66
2022/10/23 05:31:22;;;;;;;14.67;6.60;;;;;;;;;;5043036;28;20029;-66
2022/10/23 05:33:47;;;;;;;11.50;6.60;;;;;;;;;;5045597;28;20258;-66
2022/10/23 05:36:13;;;;;;;14.50;6.70;;;;;;;;;;5032245;28;20163;-66
2022/10/23 05:38:39;;;;;;;17.35;6.55;;;;;;;;;;5033880;28;20488;-67
2022/10/23 05:41:04;;;;;;;12.27;6.47;;;;;;;;;;5032116;28;20026;-68
2022/10/23 05:43:30;;;;;;;16.13;6.68;;;;;;;;;;5045772;28;20029;-64
2022/10/23 05:45:55;;;;;;;14.68;6.25;;;;;;;;;;5033035;28;20028;-67
2022/10/23 05:48:21;;;;;;;15.32;6.15;;;;;;;;;;5031691;28;20386;-66
2022/10/23 05:50:46;;;;;;;13.20;6.57;;;;;;;;;;5028635;28;20395;-67
2022/10/23 05:53:11;;;;;;;15.48;7.15;;;;;;;;;;5030886;28;20033;-66
2022/10/23 05:55:37;;;;;;;15.38;6.43;;;;;;;;;;5038170;28;20111;-66
2022/10/23 05:58:02;;;;;;;13.07;6.43;;;;;;;;;;5031627;28;20055;-67
2022/10/23 06:00:27;;;;;;;17.38;8.02;;;;;;;;;;5031764;28;20056;-68
2022/10/23 06:02:53;;;;;;;16.90;7.85;;;;;;;;;;5031522;28;20018;-66
2022/10/23 06:05:18;;;;;;;15.30;6.93;;;;;;;;;;5043556;28;20376;-65
2022/10/23 06:07:43;;;;;;;19.02;7.45;;;;;;;;;;5042615;28;20083;-67
2022/10/23 06:10:09;;;;;;;15.77;6.65;;;;;;;;;;5031922;28;20028;-64
2022/10/23 06:12:34;;;;;;;14.80;6.93;;;;;;;;;;5034355;28;20391;-67
2022/10/23 06:14:59;;;;;;;16.55;8.07;;;;;;;;;;5024446;28;20052;-67
2022/10/23 06:17:25;;;;;;;21.90;7.43;;;;;;;;;;5031361;28;20475;-67
2022/10/23 06:19:51;;;;;;;16.80;7.47;;;;;;;;;;5013807;28;20383;-67
2022/10/23 06:22:16;;;;;;;18.38;6.78;;;;;;;;;;5031780;28;20028;-67
2022/10/23 06:24:41;;;;;;;15.18;6.78;;;;;;;;;;5040124;28;20016;-67
2022/10/23 06:27:06;;;;;;;14.60;6.07;;;;;;;;;;5029735;28;20017;-68
2022/10/23 06:29:31;;;;;;;11.53;5.43;;;;;;;;;;5026962;28;20741;-67
2022/10/23 06:31:56;;;;;;;11.95;5.75;;;;;;;;;;5031694;28;20262;-66
2022/10/23 06:34:22;;;;;;;12.07;5.68;;;;;;;;;;5031047;28;20045;-65
2022/10/23 06:36:47;;;;;;;11.15;5.90;;;;;;;;;;5029290;28;20033;-65
2022/10/23 06:39:12;;;;;;;12.80;5.75;;;;;;;;;;5031436;28;20020;-67
2022/10/23 06:41:40;;;;;;;16.08;4.60;;;;;;;;;;5030511;28;20549;-66
2022/10/23 06:44:06;;;;;;;17.97;4.93;;;;;;;;;;5012654;28;20483;-66
2022/10/23 06:46:33;;;;;;;9.43;4.53;;;;;;;;;;5030380;28;20014;-68
2022/10/23 06:48:58;;;;;;;12.85;4.63;;;;;;;;;;5030319;28;20028;-68
2022/10/23 06:51:28;;;;;;;12.35;4.50;;;;;;;;;;5030727;28;20021;-67
2022/10/23 06:53:53;;;;;;;12.18;4.72;;;;;;;;;;5039627;28;20028;-65
2022/10/23 06:56:18;;;;;;;20.63;5.72;;;;;;;;;;5034459;28;20037;-66
2022/10/23 06:58:43;;;;;;;11.73;5.25;;;;;;;;;;5030391;28;20017;-67
2022/10/23 07:01:10;;;;;;;8.63;4.90;;;;;;;;;;5045760;28;20049;-67
2022/10/23 07:03:35;;;;;;;15.10;4.20;;;;;;;;;;5035162;28;20347;-65
2022/10/23 07:06:02;;;;;;;17.90;4.15;;;;;;;;;;5040806;28;20111;-67
2022/10/23 07:08:27;;;;;;;9.07;4.43;;;;;;;;;;5046345;28;20028;-64
2022/10/23 07:10:52;;;;;;;15.88;4.68;;;;;;;;;;5034303;28;20026;-67
2022/10/23 07:13:17;;;;;;;8.30;4.30;;;;;;;;;;5027804;28;20028;-67
2022/10/23 07:15:43;;;;;;;8.93;4.57;;;;;;;;;;5032178;28;20029;-69
2022/10/23 07:18:13;;;;;;;10.50;3.67;;;;;;;;;;5025326;28;20018;-66
2022/10/23 07:20:38;;;;;;;8.07;3.10;;;;;;;;;;5047215;28;20027;-67
2022/10/23 07:23:03;;;;;;;8.85;3.42;;;;;;;;;;5030242;28;20025;-67
2022/10/23 07:25:29;;;;;;;12.30;3.70;;;;;;;;;;5015452;28;20541;-66
2022/10/23 07:27:55;;;;;;;11.13;4.18;;;;;;;;;;5029873;28;20341;-65
2022/10/23 07:30:20;;;;;;;7.22;3.10;;;;;;;;;;5031345;28;20090;-67
2022/10/23 07:32:45;;;;;;;12.57;4.43;;;;;;;;;;5049938;28;20127;-67
2022/10/23 07:35:11;;;;;;;10.88;3.92;;;;;;;;;;5032572;28;20488;-68
2022/10/23 07:37:36;;;;;;;7.85;3.67;;;;;;;;;;5029815;28;20022;-66
2022/10/23 07:40:02;;;;;;;7.25;3.10;;;;;;;;;;5030196;28;20071;-67
2022/10/23 07:42:27;;;;;;;16.90;4.25;;;;;;;;;;5039833;28;20021;-66
2022/10/23 07:44:53;;;;;;;12.05;3.55;;;;;;;;;;5032661;28;20017;-67
2022/10/23 07:47:18;;;;;;;8.48;3.35;;;;;;;;;;5029194;28;20404;-67
2022/10/23 07:49:43;;;;;;;10.98;3.85;;;;;;;;;;5042198;28;20025;-66
2022/10/23 07:52:08;;;;;;;14.60;2.95;;;;;;;;;;5025735;28;20021;-68
2022/10/23 07:54:33;;;;;;;11.77;2.90;;;;;;;;;;5033040;28;20056;-65
2022/10/23 07:56:59;;;;;;;13.63;3.28;;;;;;;;;;5028802;28;20025;-68
2022/10/23 07:59:24;;;;;;;12.55;3.33;;;;;;;;;;5044531;28;20017;-68
2022/10/23 08:01:50;;;;;;;13.48;3.72;;;;;;;;;;5049633;28;20051;-67
2022/10/23 08:04:15;;;;;;;8.23;3.17;;;;;;;;;;5038240;28;20079;-66
2022/10/23 08:06:41;;;;;;;11.20;3.45;;;;;;;;;;5038522;28;20105;-67
2022/10/23 08:09:06;;;;;;;8.02;2.78;;;;;;;;;;5035995;28;20045;-67
2022/10/23 08:11:34;;;;;;;9.97;3.53;;;;;;;;;;5040615;28;20025;-67
2022/10/23 08:14:01;;;;;;;7.13;3.57;;;;;;;;;;5028531;28;20780;-69
2022/10/23 08:16:26;;;;;;;13.55;2.70;;;;;;;;;;5044500;28;20014;-67
2022/10/23 08:18:51;;;;;;;6.80;2.73;;;;;;;;;;5032964;28;20044;-68
2022/10/23 08:21:17;;;;;;;12.60;2.72;;;;;;;;;;5041314;28;20284;-67
2022/10/23 08:23:42;;;;;;;12.23;2.95;;;;;;;;;;5037231;28;20030;-65
2022/10/23 08:26:08;;;;;;;10.13;3.15;;;;;;;;;;5031234;28;20203;-67
2022/10/23 08:28:33;;;;;;;9.80;2.85;;;;;;;;;;5029956;28;20560;-69
2022/10/23 08:31:04;;;;;;;11.45;2.95;;;;;;;;;;5037646;28;20025;-67
2022/10/23 08:33:30;;;;;;;11.15;3.35;;;;;;;;;;5033148;28;20099;-67
2022/10/23 08:35:55;;;;;;;15.82;3.70;;;;;;;;;;5053096;28;20044;-66
2022/10/23 08:38:20;;;;;;;11.87;3.73;;;;;;;;;;5051343;28;20099;-67
2022/10/23 08:40:46;;;;;;;11.57;3.92;;;;;;;;;;5032796;28;20251;-67
2022/10/23 08:43:11;;;;;;;8.20;3.90;;;;;;;;;;5033428;28;20021;-66
2022/10/23 08:45:43;;;;;;;11.23;3.30;;;;;;;;;;5045143;28;20395;-67
2022/10/23 08:48:12;;;;;;;17.13;3.60;;;;;;;;;;5032519;28;20356;-67
2022/10/23 08:50:37;;;;;;;;;;;;;;;;;;5033252;28;20033;-68
2022/10/23 08:53:05;;;;;;;14.32;2.88;;;;;;;;;;5032653;28;19916;-67
2022/10/23 08:55:39;;;;;;;17.77;3.23;;;;;;;;;;5032551;28;20079;-68
2022/10/23 08:58:23;;;;;;;10.15;3.20;;;;;;;;;;5031077;28;20088;-66
2022/10/23 09:00:49;;;;;;;7.63;2.83;;;;;;;;;;5031801;28;20024;-67
2022/10/23 09:03:14;;;;;;;16.60;3.22;;;;;;;;;;5017587;28;20017;-67
2022/10/23 09:06:04;;;;;;;7.80;3.10;;;;;;;;;;5041891;28;20033;-67
2022/10/23 09:08:32;;;;;;;9.85;3.40;;;;;;;;;;5036077;28;20028;-66
2022/10/23 09:11:15;;;;;;;7.45;2.83;;;;;;;;;;5014949;28;20395;-68
2022/10/23 09:13:49;;;;;;;16.65;3.10;;;;;;;;;;5030036;28;20028;-67
2022/10/23 09:16:20;;;;;;;10.57;3.10;;;;;;;;;;5031636;28;20030;-67
2022/10/23 09:18:46;;;;;;;8.32;2.40;;;;;;;;;;5032779;28;20018;-68
2022/10/23 09:21:11;;;;;;;8.80;2.88;;;;;;;;;;5027329;28;20025;-69
2022/10/23 09:23:36;;;;;;;6.00;2.60;;;;;;;;;;5032318;28;20017;-68
2022/10/23 09:26:04;;;;;;;11.85;3.22;;;;;;;;;;5031333;28;20033;-68
2022/10/23 09:28:30;;;;;;;8.98;2.67;;;;;;;;;;5025527;28;20025;-68
2022/10/23 09:31:09;;;;;;;10.55;2.90;;;;;;;;;;5019744;28;20495;-67
2022/10/23 09:33:35;;;;;;;8.55;2.60;;;;;;;;;;5032611;28;20029;-68
2022/10/23 09:36:01;;;;;;;8.85;2.88;;;;;;;;;;5031381;28;20104;-68
2022/10/23 09:38:33;;;;;;;7.72;2.65;;;;;;;;;;5032619;28;20443;-66
2022/10/23 09:41:00;;;;;;;11.77;2.67;;;;;;;;;;5031951;28;20021;-67
2022/10/23 09:43:26;;;;;;;14.65;3.30;;;;;;;;;;5031522;28;20013;-68
2022/10/23 09:45:56;;;;;;;10.20;2.70;;;;;;;;;;5020721;28;20028;-68
2022/10/23 09:48:21;;;;;;;15.40;3.35;;;;;;;;;;5028703;28;20029;-67
2022/10/23 09:50:46;;;;;;;9.13;3.27;;;;;;;;;;5029100;28;20594;-68
2022/10/23 09:53:15;;;;;;;15.17;3.60;;;;;;;;;;5031396;28;20267;-67
2022/10/23 09:55:40;;;;;;;;;;;;;;;;;;5019958;28;20274;-69
2022/10/23 09:58:17;;;;;;;9.38;3.25;;;;;;;;;;5031296;28;19905;-68
2022/10/23 10:00:45;;;;;;;12.25;3.05;;;;;;;;;;5018274;28;20045;-67
2022/10/23 10:03:18;;;;;;;9.20;3.08;;;;;;;;;;5033438;28;20017;-69
2022/10/23 10:05:51;;;;;;;10.73;3.63;;;;;;;;;;5042569;28;20029;-68
2022/10/23 10:08:21;;;;;;;7.60;3.20;;;;;;;;;;5033268;28;20061;-68
2022/10/23 10:10:48;;;;;;;9.23;3.50;;;;;;;;;;5030705;28;20022;-68
2022/10/23 10:13:32;;;;;;;10.10;3.53;;;;;;;;;;5042716;28;20021;-65
2022/10/23 10:16:01;;;;;;;8.52;3.63;;;;;;;;;;5028952;28;20029;-67
2022/10/23 10:18:40;;;;;;;5.95;2.80;;;;;;;;;;5020981;28;20037;-70
2022/10/23 10:21:20;;;;;;;9.38;3.28;;;;;;;;;;5031114;28;20086;-67
2022/10/23 10:23:45;;;;;;;12.30;3.13;;;;;;;;;;5030800;28;20013;-68
2022/10/23 10:26:36;;;;;;;8.73;3.30;;;;;;;;;;5030595;28;20075;-67
2022/10/23 10:29:05;;;;;;;7.93;3.17;;;;;;;;;;5023920;28;20033;-68
2022/10/23 10:31:36;;;;;;;5.38;2.85;;;;;;;;;;5030275;28;20093;-68
2022/10/23 10:34:01;;;;;;;8.35;3.40;;;;;;;;;;5043939;28;20025;-68
2022/10/23 10:36:38;;;;;;;12.73;3.67;;;;;;;;;;5013248;28;20095;-67
2022/10/23 10:39:07;;;;;;;6.28;2.92;;;;;;;;;;5017473;28;20586;-67
2022/10/23 10:41:43;;;;;;;12.70;3.15;;;;;;;;;;5030121;28;20226;-69
2022/10/23 10:44:11;;;;;;;6.95;2.85;;;;;;;;;;5031021;28;20060;-68
2022/10/23 10:46:45;;;;;;;6.15;2.60;;;;;;;;;;5030569;28;20558;-68
2022/10/23 10:49:18;;;;;;;10.80;3.63;;;;;;;;;;5030653;28;20030;-69
2022/10/23 10:51:58;;;;;;;5.85;2.90;;;;;;;;;;5035325;28;20144;-68
2022/10/23 10:54:43;;;;;;;11.90;2.78;;;;;;;;;;5037302;28;20133;-67
2022/10/23 10:57:12;;;;;;;21.45;3.88;;;;;;;;;;5030210;28;20032;-67
2022/10/23 10:59:41;;;;;;;5.68;2.47;;;;;;;;;;5030566;28;20017;-67
2022/10/23 11:02:12;;;;;;;7.57;3.38;;;;;;;;;;5040180;28;20023;-69
2022/10/23 11:04:44;;;;;;;9.63;3.13;;;;;;;;;;5033183;28;20022;-68
2022/10/23 11:07:14;;;;;;;4.88;2.42;;;;;;;;;;5049814;28;20021;-67
2022/10/23 11:09:40;;;;;;;8.93;2.58;;;;;;;;;;5031471;28;20063;-68
2022/10/23 11:12:05;;;;;;;6.68;1.95;;;;;;;;;;5027902;28;20026;-68
2022/10/23 11:14:31;;;;;;;4.60;1.63;;;;;;;;;;5035467;28;20032;-68
2022/10/23 11:17:15;;;;;;;4.93;2.10;;;;;;;;;;5031569;28;20021;-67
2022/10/23 11:19:59;;;;;;;5.07;2.20;;;;;;;;;;5030197;28;20010;-68
2022/10/23 11:22:29;;;;;;;5.50;2.10;;;;;;;;;;5030322;28;20432;-67
2022/10/23 11:25:19;;;;;;;12.32;2.83;;;;;;;;;;5041531;28;20032;-68
2022/10/23 11:27:56;;;;;;;6.72;1.95;;;;;;;;;;5017205;28;20064;-68
2022/10/23 11:30:29;;;;;;;7.53;2.10;;;;;;;;;;5024786;28;20268;-69
2022/10/23 11:33:00;;;;;;;5.38;2.10;;;;;;;;;;5029705;28;20021;-67
2022/10/23 11:35:37;;;;;;;10.18;2.85;;;;;;;;;;5032855;28;20105;-67
2022/10/23 11:38:05;;;;;;;5.78;2.15;;;;;;;;;;5029327;28;20048;-67
2022/10/23 11:40:30;;;;;;;8.45;3.25;;;;;;;;;;5029650;28;20026;-68
2022/10/23 11:42:56;;;;;;;6.05;1.85;;;;;;;;;;5030068;28;20024;-69
2022/10/23 11:45:35;;;;;;;7.07;2.65;;;;;;;;;;5030112;28;20021;-69
2022/10/23 11:48:12;;;;;;;5.05;2.28;;;;;;;;;;5030671;28;20022;-68
2022/10/23 11:50:43;;;;;;;6.43;2.50;;;;;;;;;;5028136;28;20026;-67
2022/10/23 11:53:23;;;;;;;5.90;2.00;;;;;;;;;;5028670;28;20025;-68
2022/10/23 11:56:03;;;;;;;4.20;1.80;;;;;;;;;;5034228;28;20051;-67
2022/10/23 11:58:48;;;;;;;8.48;2.83;;;;;;;;;;5029046;28;20017;-70
2022/10/23 12:01:17;;;;;;;8.80;2.28;;;;;;;;;;5029200;28;20029;-66
2022/10/23 12:03:49;;;;;;;4.90;1.98;;;;;;;;;;5038336;28;20090;-68
2022/10/23 12:06:19;;;;;;;5.75;2.13;;;;;;;;;;5034566;28;20113;-67
2022/10/23 12:08:49;;;;;;;14.05;2.67;;;;;;;;;;5048394;28;20052;-68
2022/10/23 12:11:46;;;;;;;11.93;2.30;;;;;;;;;;5031346;28;20478;-67
2022/10/23 12:14:25;;;;;;;4.37;1.63;;;;;;;;;;4989605;28;20042;-67
2022/10/23 12:16:50;;;;;;;5.40;1.95;;;;;;;;;;5029938;28;20048;-68
2022/10/23 12:19:21;;;;;;;25.52;2.80;;;;;;;;;;5031876;28;20086;-67
2022/10/23 12:21:46;;;;;;;6.63;2.20;;;;;;;;;;5034167;28;20018;-66
2022/10/23 12:24:27;;;;;;;7.60;2.10;;;;;;;;;;5029333;28;20021;-67
2022/10/23 12:26:57;;;;;;;9.30;3.13;;;;;;;;;;5027800;28;20387;-69
2022/10/23 12:29:39;;;;;;;7.50;2.65;;;;;;;;;;5023854;28;20199;-66
2022/10/23 12:32:40;;;;;;;8.75;2.38;;;;;;;;;;5029498;28;20032;-67
2022/10/23 12:35:20;;;;;;;8.02;2.22;;;;;;;;;;4953548;28;20027;-68
2022/10/23 12:38:03;;;;;;;11.23;2.28;;;;;;;;;;5012701;28;20613;-67
2022/10/23 12:40:29;;;;;;;5.75;2.10;;;;;;;;;;5029978;28;20017;-68
2022/10/23 12:42:55;;;;;;;7.63;2.47;;;;;;;;;;5030342;28;20037;-67
2022/10/23 12:45:25;;;;;;;12.20;2.60;;;;;;;;;;5012905;28;20060;-68
2022/10/23 12:47:51;;;;;;;9.60;2.83;;;;;;;;;;5028211;28;20021;-67
2022/10/23 12:50:19;;;;;;;7.28;2.13;;;;;;;;;;5029975;28;20190;-68
2022/10/23 12:52:51;;;;;;;8.77;2.47;;;;;;;;;;5029956;28;20017;-67
2022/10/23 12:55:16;;;;;;;7.60;2.85;;;;;;;;;;5029545;28;20488;-68
2022/10/23 12:57:42;;;;;;;8.77;2.55;;;;;;;;;;5030440;28;20132;-67
2022/10/23 13:00:11;;;;;;;9.10;3.08;;;;;;;;;;5030632;28;20022;-69
2022/10/23 13:02:36;;;;;;;7.03;2.40;;;;;;;;;;5032646;28;20017;-68
2022/10/23 13:05:05;;;;;;;15.45;5.95;;;;;;;;;;5037437;28;20100;-68
2022/10/23 13:07:30;;;;;;;;;;;;;;;;;;5045838;28;20040;-68
2022/10/23 13:09:56;;;;;;;14.32;2.35;;;;;;;;;;5033122;28;19905;-68
2022/10/23 13:12:26;;;;;;;7.75;2.53;;;;;;;;;;5032957;28;20017;-66
2022/10/23 13:14:55;;;;;;;6.68;2.63;;;;;;;;;;5040002;28;20021;-67
2022/10/23 13:17:20;;;;;;;5.65;1.92;;;;;;;;;;5033506;28;20072;-67
2022/10/23 13:19:45;;;;;;;12.05;2.55;;;;;;;;;;5031468;28;20106;-67
2022/10/23 13:22:16;;;;;;;9.97;2.63;;;;;;;;;;5049117;28;20040;-68
2022/10/23 13:24:41;;;;;;;8.23;2.55;;;;;;;;;;5042680;28;20251;-69
2022/10/23 13:27:26;;;;;;;12.57;3.00;;;;;;;;;;5032492;28;20040;-68
2022/10/23 13:29:52;;;;;;;10.50;2.50;;;;;;;;;;5024890;28;20025;-68
2022/10/23 13:32:24;;;;;;;7.32;2.45;;;;;;;;;;5032737;28;20040;-66
2022/10/23 13:34:50;;;;;;;8.90;2.80;;;;;;;;;;5033484;28;20029;-66
2022/10/23 13:37:26;;;;;;;12.77;3.13;;;;;;;;;;5039410;28;20086;-68
2022/10/23 13:40:03;;;;;;;8.10;3.10;;;;;;;;;;5038175;28;20025;-67
2022/10/23 13:42:29;;;;;;;9.67;2.60;;;;;;;;;;5033567;28;20021;-67
2022/10/23 13:44:54;;;;;;;13.85;3.03;;;;;;;;;;5018449;28;20411;-67
2022/10/23 13:47:19;;;;;;;7.10;2.83;;;;;;;;;;5032237;28;20108;-67
2022/10/23 13:49:44;;;;;;;8.63;2.80;;;;;;;;;;5032247;28;20029;-68
2022/10/23 13:52:11;;;;;;;5.97;2.65;;;;;;;;;;5032263;28;20442;-67
2022/10/23 13:54:36;;;;;;;10.32;2.58;;;;;;;;;;5017888;28;20469;-67
2022/10/23 13:57:02;;;;;;;7.60;3.25;;;;;;;;;;5030433;28;20116;-67
2022/10/23 13:59:27;;;;;;;9.47;3.27;;;;;;;;;;5031901;28;20642;-68
2022/10/23 14:01:52;;;;;;;8.68;3.28;;;;;;;;;;5040747;28;20261;-66
2022/10/23 14:04:18;;;;;;;7.30;2.80;;;;;;;;;;5039609;28;20018;-68
2022/10/23 14:06:43;;;;;;;7.68;2.63;;;;;;;;;;5039404;28;20430;-67
2022/10/23 14:09:13;;;;;;;6.90;2.60;;;;;;;;;;5037367;28;20040;-68
2022/10/23 14:11:38;;;;;;;6.30;2.75;;;;;;;;;;5030931;28;20033;-65
2022/10/23 14:14:03;;;;;;;9.75;3.25;;;;;;;;;;5014291;28;20156;-68
2022/10/23 14:16:29;;;;;;;9.07;3.25;;;;;;;;;;5013696;28;20084;-69
2022/10/23 14:18:54;;;;;;;9.90;2.55;;;;;;;;;;5031877;28;20032;-68
2022/10/23 14:21:20;;;;;;;6.40;2.38;;;;;;;;;;5031426;28;20029;-68
2022/10/23 14:23:46;;;;;;;9.25;2.63;;;;;;;;;;5045318;28;20013;-68
2022/10/23 14:26:14;;;;;;;11.73;3.05;;;;;;;;;;5040666;28;20114;-69
2022/10/23 14:28:39;;;;;;;9.57;3.42;;;;;;;;;;5031540;28;20022;-67
2022/10/23 14:31:05;;;;;;;12.23;4.10;;;;;;;;;;5032372;28;20065;-68
2022/10/23 14:33:30;;;;;;;7.82;3.63;;;;;;;;;;5032830;28;20021;-66
2022/10/23 14:35:55;;;;;;;11.07;3.28;;;;;;;;;;5042681;28;20386;-68
2022/10/23 14:38:21;;;;;;;13.23;4.05;;;;;;;;;;5031542;28;20098;-67
2022/10/23 14:40:46;;;;;;;10.40;3.57;;;;;;;;;;5031303;28;20097;-67